createdAt,value
2022-12-06T00:01:32.473Z,3.15
2022-12-06T00:04:03.119Z,3.10
2022-12-06T00:06:33.350Z,3.12
2022-12-06T00:09:02.532Z,3.16
2022-12-06T00:11:34.550Z,3.04
2022-12-06T00:14:04.333Z,3.03
2022-12-06T00:16:33.478Z,2.93
2022-12-06T00:19:02.915Z,3.01
2022-12-06T00:21:33.066Z,3.06
2022-12-06T00:24:03.643Z,2.94
2022-12-06T00:26:33.496Z,3.00
2022-12-06T00:29:02.404Z,2.95
2022-12-06T00:31:32.474Z,3.00
2022-12-06T00:34:00.879Z,3.06
2022-12-06T00:36:30.792Z,3.17
2022-12-06T00:39:01.170Z,3.14
2022-12-06T00:41:30.035Z,3.10
2022-12-06T00:43:59.988Z,3.18
2022-12-06T00:46:30.420Z,3.07
2022-12-06T00:49:01.409Z,3.06
2022-12-06T00:51:32.136Z,3.02
2022-12-06T00:54:00.790Z,3.05
2022-12-06T00:56:29.813Z,3.13
2022-12-06T00:59:00.077Z,2.99
2022-12-06T01:01:30.352Z,3.07
2022-12-06T01:04:02.059Z,3.03
2022-12-06T01:06:32.438Z,3.10
2022-12-06T01:09:02.834Z,3.13
2022-12-06T01:11:31.221Z,3.16
2022-12-06T01:14:00.853Z,3.13
2022-12-06T01:16:31.471Z,3.05
2022-12-06T01:19:01.449Z,3.14
2022-12-06T01:21:30.789Z,3.15
2022-12-06T01:23:59.524Z,3.14
2022-12-06T01:26:30.452Z,3.18
2022-12-06T01:29:01.484Z,3.15
2022-12-06T01:31:37.208Z,3.17
2022-12-06T01:34:06.903Z,3.16
2022-12-06T01:36:34.954Z,3.17
2022-12-06T01:39:06.997Z,3.10
2022-12-06T01:41:35.761Z,3.09
2022-12-06T01:44:06.937Z,3.06
2022-12-06T01:46:38.819Z,3.09
2022-12-06T01:49:18.499Z,3.05
2022-12-06T01:51:50.955Z,3.05
2022-12-06T01:54:21.920Z,3.13
2022-12-06T01:56:52.090Z,3.11
2022-12-06T01:59:22.621Z,3.07
2022-12-06T02:01:51.483Z,3.09
2022-12-06T02:04:20.756Z,3.08
2022-12-06T02:06:49.235Z,3.04
2022-12-06T02:09:18.773Z,3.01
2022-12-06T02:11:47.575Z,3.00
2022-12-06T02:14:19.110Z,3.00
2022-12-06T02:17:02.630Z,2.96
2022-12-06T02:19:56.278Z,2.92
2022-12-06T02:22:33.210Z,2.96
2022-12-06T02:25:25.343Z,2.93
2022-12-06T02:28:15.729Z,2.91
2022-12-06T02:30:48.531Z,2.94
2022-12-06T02:33:22.911Z,2.90
2022-12-06T02:35:59.469Z,2.88
2022-12-06T02:38:34.798Z,2.82
2022-12-06T02:41:08.943Z,2.74
2022-12-06T02:43:42.660Z,2.68
2022-12-06T02:46:15.020Z,2.65
2022-12-06T02:48:46.117Z,2.63
2022-12-06T02:51:18.242Z,2.58
2022-12-06T02:53:54.291Z,2.59
2022-12-06T02:56:23.863Z,2.38
2022-12-06T02:58:52.211Z,2.38
2022-12-06T03:01:26.189Z,2.27
2022-12-06T03:04:16.312Z,2.26
2022-12-06T03:07:11.177Z,2.25
2022-12-06T03:09:53.725Z,2.26
2022-12-06T03:12:31.471Z,2.19
2022-12-06T03:15:10.286Z,2.16
2022-12-06T03:17:44.360Z,2.10
2022-12-06T03:20:17.119Z,2.10
2022-12-06T03:22:50.356Z,2.05
2022-12-06T03:25:19.187Z,2.08
2022-12-06T03:27:49.508Z,2.05
2022-12-06T03:30:18.222Z,2.00
2022-12-06T03:32:51.016Z,1.90
2022-12-06T03:35:23.252Z,1.80
2022-12-06T03:37:56.703Z,1.73
2022-12-06T03:40:30.036Z,1.70
2022-12-06T03:42:59.154Z,1.63
2022-12-06T03:45:34.425Z,1.64
2022-12-06T03:48:09.259Z,1.62
2022-12-06T03:50:41.250Z,1.69
2022-12-06T03:53:09.706Z,1.68
2022-12-06T03:55:38.273Z,1.65
2022-12-06T03:58:06.734Z,1.62
2022-12-06T04:00:35.088Z,1.52
2022-12-06T04:03:04.490Z,1.52
2022-12-06T04:05:32.715Z,1.52
2022-12-06T04:08:01.002Z,1.49
2022-12-06T04:10:29.203Z,1.48
2022-12-06T04:13:02.360Z,1.49
2022-12-06T04:15:32.448Z,1.48
2022-12-06T04:18:14.176Z,1.44
2022-12-06T04:21:03.417Z,1.41
2022-12-06T04:23:32.894Z,1.42
2022-12-06T04:26:01.102Z,1.41
2022-12-06T04:28:47.217Z,1.34
2022-12-06T04:31:32.627Z,1.37
2022-12-06T04:34:18.221Z,1.27
2022-12-06T04:37:05.621Z,1.25
2022-12-06T04:39:34.158Z,1.26
2022-12-06T04:42:20.315Z,1.18
2022-12-06T04:44:48.931Z,1.10
2022-12-06T04:47:17.319Z,1.10
2022-12-06T04:49:45.466Z,1.06
2022-12-06T04:52:15.200Z,1.00
2022-12-06T04:54:43.871Z,0.91
2022-12-06T04:57:13.955Z,0.94
2022-12-06T04:59:43.978Z,0.91
2022-12-06T05:02:14.347Z,0.92
2022-12-06T05:04:42.658Z,0.96
2022-12-06T05:07:11.883Z,0.89
2022-12-06T05:09:41.537Z,0.87
2022-12-06T05:12:09.685Z,0.82
2022-12-06T05:14:38.170Z,0.78
2022-12-06T05:17:06.616Z,0.66
2022-12-06T05:19:34.812Z,0.71
2022-12-06T05:22:03.191Z,0.58
2022-12-06T05:24:31.455Z,0.50
2022-12-06T05:27:00.967Z,0.31
2022-12-06T05:29:29.387Z,0.49
2022-12-06T05:31:57.749Z,0.39
2022-12-06T05:34:26.112Z,0.35
2022-12-06T05:36:54.261Z,0.42
2022-12-06T05:39:22.500Z,0.51
2022-12-06T05:41:50.451Z,0.53
2022-12-06T05:44:20.103Z,0.57
2022-12-06T05:46:48.267Z,0.60
2022-12-06T05:49:16.367Z,0.57
2022-12-06T05:51:44.732Z,0.61
2022-12-06T05:54:13.062Z,0.63
2022-12-06T05:56:41.278Z,0.58
2022-12-06T05:59:09.569Z,0.56
2022-12-06T06:01:39.478Z,0.67
2022-12-06T06:04:07.800Z,0.72
2022-12-06T06:06:36.216Z,0.70
2022-12-06T06:09:04.708Z,0.64
2022-12-06T06:11:32.868Z,0.64
2022-12-06T06:14:01.001Z,0.60
2022-12-06T06:16:29.604Z,0.68
2022-12-06T06:19:02.079Z,0.62
2022-12-06T06:21:30.219Z,0.63
2022-12-06T06:23:58.856Z,0.62
2022-12-06T06:26:27.307Z,0.60
2022-12-06T06:28:55.587Z,0.59
2022-12-06T06:31:23.895Z,0.59
2022-12-06T06:33:52.198Z,0.62
2022-12-06T06:36:21.976Z,0.64
2022-12-06T06:38:50.342Z,0.60
2022-12-06T06:41:18.585Z,0.58
2022-12-06T06:46:31.636Z,0.58
2022-12-06T06:49:00.117Z,0.55
2022-12-06T06:51:32.105Z,0.65
2022-12-06T06:54:00.889Z,0.28
2022-12-06T06:56:31.690Z,0.72
2022-12-06T06:58:59.948Z,0.78
2022-12-06T07:01:28.887Z,0.77
2022-12-06T07:03:57.575Z,0.78
2022-12-06T07:06:25.836Z,0.58
2022-12-06T07:08:55.790Z,0.47
2022-12-06T07:11:25.136Z,0.44
2022-12-06T07:13:54.719Z,0.60
2022-12-06T07:16:23.182Z,0.32
2022-12-06T07:18:51.750Z,0.55
2022-12-06T07:21:19.906Z,0.35
2022-12-06T07:23:48.477Z,0.27
2022-12-06T07:26:20.610Z,0.54
2022-12-06T07:28:52.652Z,0.45
2022-12-06T07:31:23.749Z,0.10
2022-12-06T07:33:57.585Z,0.37
2022-12-06T07:36:28.395Z,-0.03
2022-12-06T07:39:01.518Z,0.26
2022-12-06T07:41:49.362Z,0.27
2022-12-06T07:44:35.814Z,-0.07
2022-12-06T07:47:04.855Z,-0.10
2022-12-06T07:49:33.287Z,0.23
2022-12-06T07:52:01.705Z,0.05
2022-12-06T07:54:29.799Z,0.07
2022-12-06T07:56:59.879Z,0.31
2022-12-06T07:59:28.197Z,-0.09
2022-12-06T08:01:57.205Z,0.06
2022-12-06T08:04:26.314Z,0.28
2022-12-06T08:06:55.549Z,0.35
2022-12-06T08:09:24.557Z,0.20
2022-12-06T08:11:53.361Z,0.07
2022-12-06T08:14:24.025Z,0.22
2022-12-06T08:16:52.259Z,0.36
2022-12-06T08:19:33.365Z,0.34
2022-12-06T08:22:07.553Z,0.28
2022-12-06T08:24:45.659Z,0.16
2022-12-06T08:27:14.202Z,0.19
2022-12-06T08:29:45.440Z,-0.07
2022-12-06T08:32:14.774Z,-0.07
2022-12-06T08:34:43.096Z,-0.07
2022-12-06T08:37:11.650Z,-0.22
2022-12-06T08:39:40.678Z,0.27
2022-12-06T08:42:10.541Z,0.13
2022-12-06T08:44:39.740Z,0.28
2022-12-06T08:47:13.044Z,0.35
2022-12-06T08:49:41.363Z,0.15
2022-12-06T08:52:09.729Z,0.19
2022-12-06T08:54:38.383Z,0.33
2022-12-06T08:57:07.030Z,0.08
2022-12-06T08:59:35.979Z,-0.04
2022-12-06T09:02:04.843Z,0.00
2022-12-06T09:04:35.126Z,0.05
2022-12-06T09:07:11.433Z,0.29
2022-12-06T09:09:40.317Z,0.19
2022-12-06T09:12:09.041Z,0.38
2022-12-06T09:14:40.175Z,0.39
2022-12-06T09:17:08.934Z,0.13
2022-12-06T09:19:40.145Z,0.41
2022-12-06T09:22:08.991Z,0.47
2022-12-06T09:24:37.467Z,-0.01
2022-12-06T09:27:06.036Z,-0.24
2022-12-06T09:29:40.874Z,0.06
2022-12-06T09:32:09.904Z,0.57
2022-12-06T09:34:39.759Z,0.63
2022-12-06T09:37:14.636Z,0.65
2022-12-06T09:39:46.634Z,0.48
2022-12-06T09:42:41.512Z,0.40
2022-12-06T09:45:33.139Z,0.03
2022-12-06T09:48:34.781Z,0.49
2022-12-06T09:51:19.120Z,0.32
2022-12-06T09:54:01.815Z,0.51
2022-12-06T09:56:38.897Z,0.56
2022-12-06T09:59:17.627Z,0.58
2022-12-06T10:01:58.115Z,0.64
2022-12-06T10:04:54.733Z,0.67
2022-12-06T10:07:32.319Z,0.58
2022-12-06T10:10:12.291Z,0.71
2022-12-06T10:12:59.502Z,0.26
2022-12-06T10:15:39.524Z,0.55
2022-12-06T10:18:28.493Z,0.78
2022-12-06T10:21:06.820Z,0.83
2022-12-06T10:23:51.186Z,0.83
2022-12-06T10:26:27.673Z,0.77
2022-12-06T10:29:09.440Z,0.68
2022-12-06T10:31:59.244Z,0.82
2022-12-06T10:34:52.984Z,0.85
2022-12-06T10:40:30.521Z,0.72
2022-12-06T10:43:07.023Z,0.59
2022-12-06T10:46:12.934Z,0.41
2022-12-06T10:48:54.163Z,0.36
2022-12-06T10:51:31.913Z,0.34
2022-12-06T10:54:11.526Z,0.12
2022-12-06T10:56:49.349Z,0.40
2022-12-06T10:59:32.819Z,0.22
2022-12-06T11:02:06.712Z,0.84
2022-12-06T11:04:40.189Z,0.47
2022-12-06T11:07:30.502Z,0.73
2022-12-06T11:10:01.645Z,0.61
2022-12-06T11:12:36.882Z,0.83
2022-12-06T11:15:18.491Z,0.59
2022-12-06T11:20:52.904Z,0.64
2022-12-06T11:23:28.097Z,0.73
2022-12-06T11:26:12.130Z,0.84
2022-12-06T11:32:09.485Z,0.89
2022-12-06T11:34:43.961Z,0.70
2022-12-06T11:37:18.685Z,0.93
2022-12-06T11:39:48.307Z,0.83
2022-12-06T11:42:19.159Z,0.83
2022-12-06T11:44:54.564Z,0.92
2022-12-06T11:47:25.454Z,0.93
2022-12-06T11:49:56.663Z,0.62
2022-12-06T11:52:31.172Z,0.68
2022-12-06T11:55:04.021Z,0.70
2022-12-06T11:57:37.013Z,0.85
2022-12-06T12:00:14.583Z,0.86
2022-12-06T12:02:48.601Z,0.93
2022-12-06T12:05:23.673Z,0.95
2022-12-06T12:07:57.507Z,0.52
2022-12-06T12:10:38.612Z,0.70
2022-12-06T12:13:40.085Z,0.94
2022-12-06T12:16:16.828Z,0.78
2022-12-06T12:18:56.714Z,0.99
2022-12-06T12:21:48.481Z,0.85
2022-12-06T12:25:17.448Z,1.00
2022-12-06T12:27:35.752Z,1.01
2022-12-06T12:33:31.556Z,1.06
2022-12-06T12:36:18.411Z,0.95
2022-12-06T12:38:55.501Z,1.05
2022-12-06T12:41:29.670Z,1.03
2022-12-06T12:44:35.294Z,1.03
2022-12-06T12:46:53.777Z,0.80
2022-12-06T12:49:29.736Z,1.01
2022-12-06T12:52:01.054Z,1.00
2022-12-06T12:54:33.527Z,0.86
2022-12-06T12:57:03.711Z,0.85
2022-12-06T12:59:40.548Z,0.84
2022-12-06T13:02:18.953Z,0.85
2022-12-06T13:04:59.815Z,1.05
2022-12-06T13:07:43.533Z,1.16
2022-12-06T13:10:22.505Z,1.16
2022-12-06T13:12:54.665Z,1.29
2022-12-06T13:15:30.635Z,0.92
2022-12-06T13:18:02.095Z,1.03
2022-12-06T13:20:33.388Z,1.02
2022-12-06T13:23:08.530Z,0.98
2022-12-06T13:25:42.947Z,1.00
2022-12-06T13:28:20.473Z,0.85
2022-12-06T13:30:58.455Z,0.88
2022-12-06T13:33:29.091Z,1.02
2022-12-06T13:36:01.781Z,0.79
2022-12-06T13:38:34.620Z,0.82
2022-12-06T13:41:03.705Z,1.12
2022-12-06T13:43:50.284Z,1.04
2022-12-06T13:46:31.475Z,0.93
2022-12-06T13:49:04.741Z,1.04
2022-12-06T13:51:50.097Z,1.02
2022-12-06T13:54:41.326Z,1.03
2022-12-06T13:57:28.369Z,0.58
2022-12-06T13:59:59.223Z,1.02
2022-12-06T14:02:52.064Z,0.72
2022-12-06T14:06:12.191Z,0.94
2022-12-06T14:08:49.590Z,0.84
2022-12-06T14:11:26.688Z,0.82
2022-12-06T14:14:03.867Z,0.86
2022-12-06T14:16:37.185Z,0.87
2022-12-06T14:19:15.857Z,0.40
2022-12-06T14:21:46.259Z,0.84
2022-12-06T14:24:30.298Z,0.70
2022-12-06T14:27:08.202Z,0.55
2022-12-06T14:29:39.146Z,0.80
2022-12-06T14:32:08.853Z,0.33
2022-12-06T14:34:38.744Z,0.76
2022-12-06T14:37:21.277Z,0.50
2022-12-06T14:39:53.813Z,0.38
2022-12-06T14:42:41.744Z,0.58
2022-12-06T14:45:16.225Z,0.58
2022-12-06T14:47:46.460Z,0.77
2022-12-06T14:50:28.348Z,0.46
2022-12-06T14:52:59.752Z,0.63
2022-12-06T14:55:31.475Z,0.72
2022-12-06T14:58:04.171Z,0.41
2022-12-06T15:00:38.443Z,0.27
2022-12-06T15:03:26.058Z,0.58
2022-12-06T15:06:18.412Z,0.44
2022-12-06T15:08:53.449Z,0.24
2022-12-06T15:11:44.337Z,0.65
2022-12-06T15:14:16.536Z,0.58
2022-12-06T15:16:47.115Z,0.57
2022-12-06T15:19:17.969Z,0.56
2022-12-06T15:21:46.808Z,0.42
2022-12-06T15:24:19.479Z,0.41
2022-12-06T15:26:47.981Z,0.44
2022-12-06T15:29:52.691Z,0.27
2022-12-06T15:32:25.463Z,0.31
2022-12-06T15:34:53.843Z,0.58
2022-12-06T15:37:38.629Z,0.54
2022-12-06T15:40:10.057Z,0.37
2022-12-06T15:42:40.363Z,0.15
2022-12-06T15:45:16.347Z,0.31
2022-12-06T15:47:46.250Z,0.16
2022-12-06T15:50:16.690Z,0.23
2022-12-06T15:52:48.041Z,0.45
2022-12-06T15:55:18.886Z,0.58
2022-12-06T15:57:48.273Z,0.28
2022-12-06T16:00:17.519Z,0.38
2022-12-06T16:02:48.983Z,0.56
2022-12-06T16:05:23.241Z,0.00
2022-12-06T16:07:52.322Z,-0.02
2022-12-06T16:10:23.239Z,0.28
2022-12-06T16:13:11.748Z,0.02
2022-12-06T16:15:42.788Z,0.50
2022-12-06T16:18:22.476Z,0.08
2022-12-06T16:20:51.837Z,0.15
2022-12-06T16:24:12.477Z,0.12
2022-12-06T16:26:39.461Z,0.50
2022-12-06T16:29:13.863Z,-0.07
2022-12-06T16:31:42.617Z,0.03
2022-12-06T16:34:15.851Z,0.48
2022-12-06T16:36:56.390Z,0.47
2022-12-06T16:39:28.988Z,0.53
2022-12-06T16:41:57.335Z,0.02
2022-12-06T16:44:27.047Z,0.50
2022-12-06T16:46:55.957Z,0.47
2022-12-06T16:49:49.122Z,0.00
2022-12-06T16:52:19.178Z,0.46
2022-12-06T16:54:49.658Z,0.04
2022-12-06T16:57:19.837Z,0.45
2022-12-06T16:59:48.983Z,0.56
2022-12-06T17:02:32.239Z,0.47
2022-12-06T17:05:11.800Z,0.07
2022-12-06T17:07:41.404Z,-0.01
2022-12-06T17:10:12.259Z,0.06
2022-12-06T17:15:50.547Z,0.42
2022-12-06T17:18:21.222Z,0.62
2022-12-06T17:20:53.181Z,0.47
2022-12-06T17:23:25.228Z,0.56
2022-12-06T17:26:02.432Z,0.50
2022-12-06T17:28:53.033Z,0.42
2022-12-06T17:31:36.027Z,0.17
2022-12-06T17:34:24.026Z,0.38
2022-12-06T17:36:58.122Z,-0.08
2022-12-06T17:48:22.140Z,-0.43
2022-12-06T17:54:12.729Z,0.11
2022-12-06T17:56:46.127Z,-0.48
2022-12-06T17:59:18.320Z,0.11
2022-12-06T18:02:14.290Z,0.11
2022-12-06T18:04:38.833Z,-0.27
2022-12-06T18:07:09.085Z,-0.55
2022-12-06T18:13:12.147Z,-0.32
2022-12-06T18:18:54.085Z,-0.52
2022-12-06T18:24:35.653Z,-0.04
2022-12-06T18:27:15.864Z,-0.07
2022-12-06T18:29:52.834Z,-0.11
2022-12-06T18:32:21.785Z,-0.18
2022-12-06T18:37:22.550Z,-0.32
2022-12-06T18:39:50.866Z,-0.23
2022-12-06T18:42:19.385Z,-0.25
2022-12-06T18:44:53.596Z,-0.30
2022-12-06T18:47:26.033Z,-0.37
2022-12-06T18:49:54.498Z,-0.37
2022-12-06T18:52:22.697Z,-0.42
2022-12-06T18:54:50.890Z,-0.53
2022-12-06T18:57:19.732Z,-0.60
2022-12-06T18:59:51.014Z,-0.58
2022-12-06T19:02:19.610Z,-0.44
2022-12-06T19:04:48.382Z,-0.45
2022-12-06T19:07:20.579Z,-0.45
2022-12-06T19:09:52.503Z,-0.40
2022-12-06T19:12:22.793Z,-0.36
2022-12-06T19:14:52.925Z,-0.39
2022-12-06T19:17:21.481Z,-0.50
2022-12-06T19:19:51.089Z,-0.49
2022-12-06T19:22:19.683Z,-0.75
2022-12-06T19:24:49.405Z,-0.46
2022-12-06T19:27:20.479Z,-0.47
2022-12-06T19:29:49.141Z,-0.47
2022-12-06T19:32:19.637Z,-0.50
2022-12-06T19:34:48.409Z,-0.55
2022-12-06T19:37:18.117Z,-0.55
2022-12-06T19:39:49.868Z,-0.84
2022-12-06T19:42:35.732Z,-0.56
2022-12-06T19:45:04.799Z,-0.84
2022-12-06T19:47:34.694Z,-0.61
2022-12-06T19:50:03.408Z,-0.78
2022-12-06T19:52:32.220Z,-0.63
2022-12-06T19:55:00.608Z,-0.56
2022-12-06T19:57:28.800Z,-0.53
2022-12-06T19:59:57.270Z,-0.62
2022-12-06T20:02:25.679Z,-0.64
2022-12-06T20:04:55.555Z,-0.60
2022-12-06T20:07:23.783Z,-0.57
2022-12-06T20:09:53.913Z,-0.55
2022-12-06T20:12:22.147Z,-0.49
2022-12-06T20:14:51.164Z,-0.53
2022-12-06T20:17:21.355Z,-0.53
2022-12-06T20:19:49.665Z,-0.52
2022-12-06T20:22:22.524Z,-0.48
2022-12-06T20:24:50.737Z,-0.58
2022-12-06T20:27:40.135Z,-0.56
2022-12-06T20:30:12.409Z,-0.53
2022-12-06T20:32:40.835Z,-0.54
2022-12-06T20:35:09.828Z,-0.59
2022-12-06T20:37:39.738Z,-0.55
2022-12-06T20:40:12.037Z,-0.49
2022-12-06T20:42:40.309Z,-0.48
2022-12-06T20:45:09.803Z,-0.50
2022-12-06T20:47:38.421Z,-0.52
2022-12-06T20:50:08.012Z,-0.41
2022-12-06T20:52:39.151Z,-0.33
2022-12-06T20:55:10.147Z,-0.23
2022-12-06T20:57:38.910Z,-0.24
2022-12-06T21:00:11.013Z,-0.22
2022-12-06T21:02:39.710Z,-0.24
2022-12-06T21:05:08.503Z,-0.21
2022-12-06T21:07:37.019Z,-0.19
2022-12-06T21:10:06.821Z,-0.13
2022-12-06T21:12:36.793Z,-0.19
2022-12-06T21:15:05.661Z,-0.11
2022-12-06T21:17:34.423Z,-0.02
2022-12-06T21:20:04.228Z,-0.01
2022-12-06T21:22:32.969Z,0.02
2022-12-06T21:25:01.421Z,0.08
2022-12-06T21:27:30.228Z,0.07
2022-12-06T21:30:00.603Z,-0.02
2022-12-06T21:32:29.429Z,0.07
2022-12-06T21:34:57.661Z,0.06
2022-12-06T21:37:26.303Z,0.03
2022-12-06T21:39:54.640Z,0.04
2022-12-06T21:42:24.005Z,0.11
2022-12-06T21:44:52.563Z,0.12
2022-12-06T21:47:22.449Z,0.13
2022-12-06T21:49:50.706Z,0.16
2022-12-06T21:52:19.926Z,0.18
2022-12-06T21:54:48.179Z,0.07
2022-12-06T21:57:16.661Z,0.08
2022-12-06T21:59:45.134Z,0.03
2022-12-06T22:02:13.903Z,0.15
2022-12-06T22:04:43.731Z,0.14
2022-12-06T22:07:12.210Z,0.16
2022-12-06T22:09:40.775Z,0.13
2022-12-06T22:12:09.172Z,0.21
2022-12-06T22:14:40.618Z,0.23
2022-12-06T22:17:09.213Z,0.21
2022-12-06T22:19:37.761Z,0.19
2022-12-06T22:22:08.162Z,0.18
2022-12-06T22:24:37.061Z,0.16
2022-12-06T22:27:05.652Z,0.13
2022-12-06T22:29:34.179Z,0.08
2022-12-06T22:32:02.675Z,0.10
2022-12-06T22:34:31.112Z,-0.01
2022-12-06T22:36:59.685Z,-0.01
2022-12-06T22:39:29.485Z,-0.05
2022-12-06T22:41:57.804Z,0.01
2022-12-06T22:44:26.764Z,0.04
2022-12-06T22:46:55.199Z,-0.03
2022-12-06T22:49:23.929Z,-0.02
2022-12-06T22:51:52.456Z,-0.02
2022-12-06T22:54:20.941Z,0.06
2022-12-06T22:56:50.747Z,0.02
2022-12-06T22:59:21.015Z,0.04
2022-12-06T23:01:49.534Z,-0.04
2022-12-06T23:04:18.047Z,-0.03
2022-12-06T23:06:46.561Z,0.03
2022-12-06T23:09:17.306Z,-0.03
2022-12-06T23:11:45.925Z,0.02
2022-12-06T23:14:16.469Z,0.02
2022-12-06T23:16:45.738Z,0.03
2022-12-06T23:19:14.231Z,0.10
2022-12-06T23:21:42.941Z,0.10
2022-12-06T23:24:13.940Z,0.07
2022-12-06T23:26:43.894Z,0.11
2022-12-06T23:29:12.704Z,0.09
2022-12-06T23:31:45.758Z,0.08
2022-12-06T23:34:16.772Z,0.11
2022-12-06T23:36:45.444Z,0.17
2022-12-06T23:39:14.321Z,0.10
2022-12-06T23:41:42.763Z,0.18
2022-12-06T23:44:13.289Z,0.10
2022-12-06T23:46:44.623Z,0.20
2022-12-06T23:49:16.937Z,0.18
2022-12-06T23:51:45.528Z,0.21
2022-12-06T23:54:15.610Z,0.15
2022-12-06T23:56:44.520Z,0.16
2022-12-06T23:59:14.758Z,0.34
